createdAt,value
2023-02-15T00:07:22.389Z,0.38
2023-02-15T00:22:26.281Z,0.40
2023-02-15T00:37:28.791Z,0.72
2023-02-15T00:52:31.666Z,0.76
2023-02-15T01:07:48.682Z,0.49
2023-02-15T01:22:52.283Z,0.18
2023-02-15T01:37:56.662Z,0.05
2023-02-15T01:53:04.386Z,0.29
2023-02-15T02:08:10.086Z,0.36
2023-02-15T02:23:47.721Z,0.15
2023-02-15T02:39:23.926Z,-0.06
2023-02-15T02:54:28.402Z,-0.33
2023-02-15T03:09:44.386Z,-0.34
2023-02-15T03:25:13.041Z,0.10
2023-02-15T03:41:00.635Z,0.16
2023-02-15T03:56:03.567Z,-0.13
2023-02-15T04:11:06.144Z,-0.38
2023-02-15T04:26:08.502Z,-0.46
2023-02-15T04:41:12.709Z,-0.08
2023-02-15T04:56:15.775Z,-0.01
2023-02-15T05:11:18.359Z,-0.11
2023-02-15T05:26:42.607Z,-0.29
2023-02-15T05:41:45.004Z,-0.44
2023-02-15T05:56:47.672Z,-0.36
2023-02-15T06:12:05.335Z,0.07
2023-02-15T06:27:08.276Z,0.10
2023-02-15T06:42:25.943Z,-0.12
2023-02-15T06:57:28.573Z,-0.13
2023-02-15T07:12:43.240Z,0.21
2023-02-15T07:27:46.285Z,1.01
2023-02-15T07:42:48.765Z,1.58
2023-02-15T07:57:52.069Z,1.68
2023-02-15T08:12:54.767Z,2.12
2023-02-15T08:27:57.544Z,2.40
2023-02-15T08:43:14.552Z,2.61
2023-02-15T08:58:17.131Z,2.88
2023-02-15T09:13:20.752Z,3.31
2023-02-15T09:28:23.109Z,3.42
2023-02-15T09:44:23.102Z,3.54
2023-02-15T09:59:39.978Z,3.62
2023-02-15T10:15:28.097Z,3.91
2023-02-15T10:30:44.852Z,4.15
2023-02-15T10:46:08.547Z,4.48
2023-02-15T11:01:20.219Z,5.05
2023-02-15T11:16:38.492Z,5.43
2023-02-15T11:32:02.886Z,5.79
2023-02-15T11:47:20.390Z,5.89
2023-02-15T12:02:27.034Z,6.27
2023-02-15T12:17:34.925Z,6.67
2023-02-15T12:33:03.425Z,7.09
2023-02-15T12:48:09.261Z,7.27
2023-02-15T13:03:25.178Z,7.29
2023-02-15T13:18:47.776Z,7.41
2023-02-15T13:34:13.536Z,7.62
2023-02-15T13:49:46.630Z,7.78
2023-02-15T14:05:07.333Z,8.00
2023-02-15T14:21:14.052Z,8.06
2023-02-15T14:36:20.650Z,8.11
2023-02-15T14:51:48.219Z,7.67
2023-02-15T15:07:03.013Z,7.38
2023-02-15T15:22:06.005Z,7.39
2023-02-15T15:37:27.645Z,6.93
2023-02-15T15:52:32.426Z,6.51
2023-02-15T16:07:35.101Z,6.17
2023-02-15T16:23:44.252Z,5.65
2023-02-15T16:38:46.993Z,5.17
2023-02-15T16:53:50.498Z,4.94
2023-02-15T17:09:04.673Z,4.59
2023-02-15T17:24:37.740Z,4.25
2023-02-15T17:39:41.049Z,4.32
2023-02-15T17:55:03.394Z,4.33
2023-02-15T18:10:37.103Z,3.88
2023-02-15T18:40:58.101Z,3.81
2023-02-15T18:56:00.851Z,3.70
2023-02-15T19:11:04.122Z,3.35
2023-02-15T19:26:07.169Z,3.01
2023-02-15T19:41:31.412Z,2.88
2023-02-15T19:56:34.048Z,2.99
2023-02-15T20:11:36.553Z,2.84
2023-02-15T20:26:39.038Z,2.57
2023-02-15T20:41:47.308Z,2.23
2023-02-15T20:56:50.696Z,2.07
2023-02-15T21:11:56.029Z,2.18
2023-02-15T21:27:03.099Z,2.09
2023-02-15T21:42:28.449Z,1.85
2023-02-15T21:57:45.748Z,1.59
2023-02-15T22:12:50.273Z,1.32
2023-02-15T22:27:54.602Z,1.26
2023-02-15T22:43:01.807Z,1.71
2023-02-15T22:58:05.989Z,1.75
2023-02-15T23:13:34.699Z,1.45
2023-02-15T23:28:53.497Z,1.11
2023-02-15T23:44:02.683Z,0.97
2023-02-15T23:59:27.343Z,1.15
